sensor_id;sensor_type;location;lat;lon;timestamp;P1;durP1;ratioP1;P2;durP2;ratioP2
41829;SDS011;38614;43.472;23.936;2022-07-23T00:00:36;4.78;;;1.48;;
41829;SDS011;38614;43.472;23.936;2022-07-23T00:03:27;5.60;;;1.70;;
41829;SDS011;38614;43.472;23.936;2022-07-23T00:06:14;2.78;;;1.50;;
41829;SDS011;38614;43.472;23.936;2022-07-23T00:09:02;5.93;;;2.08;;
41829;SDS011;38614;43.472;23.936;2022-07-23T00:11:50;2.88;;;1.65;;
41829;SDS011;38614;43.472;23.936;2022-07-23T00:14:38;2.78;;;1.98;;
41829;SDS011;38614;43.472;23.936;2022-07-23T00:17:26;2.25;;;1.23;;
41829;SDS011;38614;43.472;23.936;2022-07-23T00:20:14;4.97;;;1.80;;
41829;SDS011;38614;43.472;23.936;2022-07-23T00:23:01;3.53;;;1.80;;
41829;SDS011;38614;43.472;23.936;2022-07-23T00:25:51;9.32;;;3.75;;
41829;SDS011;38614;43.472;23.936;2022-07-23T00:28:42;25.17;;;6.32;;
41829;SDS011;38614;43.472;23.936;2022-07-23T00:31:29;21.08;;;6.40;;
41829;SDS011;38614;43.472;23.936;2022-07-23T00:34:17;20.65;;;6.80;;
41829;SDS011;38614;43.472;23.936;2022-07-23T00:37:05;37.65;;;9.15;;
41829;SDS011;38614;43.472;23.936;2022-07-23T00:39:52;24.52;;;7.30;;
41829;SDS011;38614;43.472;23.936;2022-07-23T00:42:40;16.38;;;6.15;;
41829;SDS011;38614;43.472;23.936;2022-07-23T00:45:30;20.42;;;7.18;;
41829;SDS011;38614;43.472;23.936;2022-07-23T00:48:22;22.05;;;6.60;;
41829;SDS011;38614;43.472;23.936;2022-07-23T00:51:10;15.05;;;4.97;;
41829;SDS011;38614;43.472;23.936;2022-07-23T00:53:58;14.38;;;4.78;;
41829;SDS011;38614;43.472;23.936;2022-07-23T00:59:38;12.82;;;4.00;;
41829;SDS011;38614;43.472;23.936;2022-07-23T01:02:26;9.38;;;3.88;;
41829;SDS011;38614;43.472;23.936;2022-07-23T01:05:14;9.52;;;3.75;;
41829;SDS011;38614;43.472;23.936;2022-07-23T01:08:02;14.02;;;3.58;;
41829;SDS011;38614;43.472;23.936;2022-07-23T01:10:50;14.48;;;4.07;;
41829;SDS011;38614;43.472;23.936;2022-07-23T01:13:42;10.88;;;4.15;;
41829;SDS011;38614;43.472;23.936;2022-07-23T01:16:30;15.20;;;4.43;;
41829;SDS011;38614;43.472;23.936;2022-07-23T01:19:18;11.57;;;3.45;;
41829;SDS011;38614;43.472;23.936;2022-07-23T01:22:06;11.23;;;4.00;;
41829;SDS011;38614;43.472;23.936;2022-07-23T01:24:54;9.25;;;3.30;;
41829;SDS011;38614;43.472;23.936;2022-07-23T01:27:45;17.10;;;3.22;;
41829;SDS011;38614;43.472;23.936;2022-07-23T01:30:34;15.30;;;3.83;;
41829;SDS011;38614;43.472;23.936;2022-07-23T01:33:25;7.57;;;3.58;;
41829;SDS011;38614;43.472;23.936;2022-07-23T01:36:13;8.18;;;3.17;;
41829;SDS011;38614;43.472;23.936;2022-07-23T01:39:03;14.00;;;3.45;;
41829;SDS011;38614;43.472;23.936;2022-07-23T01:41:51;15.40;;;3.88;;
41829;SDS011;38614;43.472;23.936;2022-07-23T01:44:40;14.27;;;3.83;;
41829;SDS011;38614;43.472;23.936;2022-07-23T01:47:33;20.20;;;4.63;;
41829;SDS011;38614;43.472;23.936;2022-07-23T01:50:21;4.43;;;2.58;;
41829;SDS011;38614;43.472;23.936;2022-07-23T01:53:32;8.55;;;2.83;;
41829;SDS011;38614;43.472;23.936;2022-07-23T01:56:19;7.60;;;3.58;;
41829;SDS011;38614;43.472;23.936;2022-07-23T01:59:08;4.80;;;2.65;;
41829;SDS011;38614;43.472;23.936;2022-07-23T02:01:56;11.50;;;2.85;;
41829;SDS011;38614;43.472;23.936;2022-07-23T02:04:45;7.45;;;2.97;;
41829;SDS011;38614;43.472;23.936;2022-07-23T02:07:35;5.78;;;2.85;;
41829;SDS011;38614;43.472;23.936;2022-07-23T02:10:22;8.95;;;3.47;;
41829;SDS011;38614;43.472;23.936;2022-07-23T02:13:10;3.97;;;2.33;;
41829;SDS011;38614;43.472;23.936;2022-07-23T02:16:05;6.85;;;2.83;;
41829;SDS011;38614;43.472;23.936;2022-07-23T02:18:52;10.20;;;3.45;;
41829;SDS011;38614;43.472;23.936;2022-07-23T02:21:40;9.30;;;2.60;;
41829;SDS011;38614;43.472;23.936;2022-07-23T02:24:28;7.80;;;2.25;;
41829;SDS011;38614;43.472;23.936;2022-07-23T02:27:15;6.03;;;1.85;;
41829;SDS011;38614;43.472;23.936;2022-07-23T02:30:06;7.30;;;2.22;;
41829;SDS011;38614;43.472;23.936;2022-07-23T02:32:54;6.30;;;2.90;;
41829;SDS011;38614;43.472;23.936;2022-07-23T02:35:44;7.18;;;2.50;;
41829;SDS011;38614;43.472;23.936;2022-07-23T02:38:32;5.07;;;1.65;;
41829;SDS011;38614;43.472;23.936;2022-07-23T02:41:19;5.90;;;3.03;;
41829;SDS011;38614;43.472;23.936;2022-07-23T02:44:07;8.05;;;3.30;;
41829;SDS011;38614;43.472;23.936;2022-07-23T02:47:01;5.65;;;1.70;;
41829;SDS011;38614;43.472;23.936;2022-07-23T02:49:52;3.35;;;2.83;;
41829;SDS011;38614;43.472;23.936;2022-07-23T02:52:40;10.27;;;2.73;;
41829;SDS011;38614;43.472;23.936;2022-07-23T02:55:28;5.53;;;3.45;;
41829;SDS011;38614;43.472;23.936;2022-07-23T02:58:19;17.00;;;4.68;;
41829;SDS011;38614;43.472;23.936;2022-07-23T03:01:07;24.45;;;7.85;;
41829;SDS011;38614;43.472;23.936;2022-07-23T03:03:55;31.38;;;9.55;;
41829;SDS011;38614;43.472;23.936;2022-07-23T03:06:43;30.10;;;8.68;;
41829;SDS011;38614;43.472;23.936;2022-07-23T03:09:31;27.15;;;8.75;;
41829;SDS011;38614;43.472;23.936;2022-07-23T03:12:21;30.70;;;10.00;;
41829;SDS011;38614;43.472;23.936;2022-07-23T03:15:09;26.92;;;9.70;;
41829;SDS011;38614;43.472;23.936;2022-07-23T03:17:57;30.13;;;10.65;;
41829;SDS011;38614;43.472;23.936;2022-07-23T03:20:46;28.83;;;9.02;;
41829;SDS011;38614;43.472;23.936;2022-07-23T03:23:34;25.35;;;10.00;;
41829;SDS011;38614;43.472;23.936;2022-07-23T03:26:23;24.73;;;7.97;;
41829;SDS011;38614;43.472;23.936;2022-07-23T03:29:12;28.42;;;8.02;;
41829;SDS011;38614;43.472;23.936;2022-07-23T03:32:01;20.88;;;7.72;;
41829;SDS011;38614;43.472;23.936;2022-07-23T03:34:50;20.55;;;7.38;;
41829;SDS011;38614;43.472;23.936;2022-07-23T03:37:38;18.30;;;7.78;;
41829;SDS011;38614;43.472;23.936;2022-07-23T03:40:26;39.30;;;8.23;;
41829;SDS011;38614;43.472;23.936;2022-07-23T03:43:14;32.60;;;8.27;;
41829;SDS011;38614;43.472;23.936;2022-07-23T03:46:01;22.63;;;7.13;;
41829;SDS011;38614;43.472;23.936;2022-07-23T03:48:49;21.70;;;6.47;;
41829;SDS011;38614;43.472;23.936;2022-07-23T03:51:42;23.83;;;6.93;;
41829;SDS011;38614;43.472;23.936;2022-07-23T03:54:30;19.42;;;5.07;;
41829;SDS011;38614;43.472;23.936;2022-07-23T03:57:18;25.05;;;6.50;;
41829;SDS011;38614;43.472;23.936;2022-07-23T04:00:05;22.38;;;6.57;;
41829;SDS011;38614;43.472;23.936;2022-07-23T04:03:04;15.50;;;5.72;;
41829;SDS011;38614;43.472;23.936;2022-07-23T04:05:53;17.45;;;5.05;;
41829;SDS011;38614;43.472;23.936;2022-07-23T04:08:41;20.40;;;5.32;;
41829;SDS011;38614;43.472;23.936;2022-07-23T04:11:29;43.08;;;6.68;;
41829;SDS011;38614;43.472;23.936;2022-07-23T04:14:17;23.13;;;5.78;;
41829;SDS011;38614;43.472;23.936;2022-07-23T04:17:06;19.98;;;5.63;;
41829;SDS011;38614;43.472;23.936;2022-07-23T04:19:54;35.75;;;4.60;;
41829;SDS011;38614;43.472;23.936;2022-07-23T04:22:44;22.15;;;4.90;;
41829;SDS011;38614;43.472;23.936;2022-07-23T04:25:36;20.98;;;5.07;;
41829;SDS011;38614;43.472;23.936;2022-07-23T04:28:25;23.57;;;5.13;;
41829;SDS011;38614;43.472;23.936;2022-07-23T04:31:12;16.50;;;6.93;;
41829;SDS011;38614;43.472;23.936;2022-07-23T04:34:03;31.40;;;7.35;;
41829;SDS011;38614;43.472;23.936;2022-07-23T04:36:52;31.58;;;10.57;;
41829;SDS011;38614;43.472;23.936;2022-07-23T04:39:40;24.60;;;9.65;;
41829;SDS011;38614;43.472;23.936;2022-07-23T04:42:28;14.02;;;7.47;;
41829;SDS011;38614;43.472;23.936;2022-07-23T04:45:16;14.43;;;7.70;;
41829;SDS011;38614;43.472;23.936;2022-07-23T04:48:04;22.13;;;8.48;;
41829;SDS011;38614;43.472;23.936;2022-07-23T04:50:52;17.20;;;8.25;;
41829;SDS011;38614;43.472;23.936;2022-07-23T04:53:44;19.10;;;8.73;;
41829;SDS011;38614;43.472;23.936;2022-07-23T04:56:32;20.17;;;7.18;;
41829;SDS011;38614;43.472;23.936;2022-07-23T04:59:19;26.33;;;10.55;;
41829;SDS011;38614;43.472;23.936;2022-07-23T05:04:59;15.05;;;6.32;;
41829;SDS011;38614;43.472;23.936;2022-07-23T05:07:48;90.03;;;8.95;;
41829;SDS011;38614;43.472;23.936;2022-07-23T05:10:36;23.58;;;6.72;;
41829;SDS011;38614;43.472;23.936;2022-07-23T05:13:24;35.20;;;6.65;;
41829;SDS011;38614;43.472;23.936;2022-07-23T05:16:12;13.13;;;5.32;;
41829;SDS011;38614;43.472;23.936;2022-07-23T05:19:01;12.98;;;5.13;;
41829;SDS011;38614;43.472;23.936;2022-07-23T05:21:51;9.90;;;5.68;;
41829;SDS011;38614;43.472;23.936;2022-07-23T05:24:40;13.40;;;4.35;;
41829;SDS011;38614;43.472;23.936;2022-07-23T05:27:31;16.33;;;4.43;;
41829;SDS011;38614;43.472;23.936;2022-07-23T05:30:19;16.17;;;4.57;;
41829;SDS011;38614;43.472;23.936;2022-07-23T05:33:10;11.93;;;4.50;;
41829;SDS011;38614;43.472;23.936;2022-07-23T05:36:00;18.60;;;5.03;;
41829;SDS011;38614;43.472;23.936;2022-07-23T05:38:50;8.98;;;4.72;;
41829;SDS011;38614;43.472;23.936;2022-07-23T05:41:38;13.30;;;3.95;;
41829;SDS011;38614;43.472;23.936;2022-07-23T05:44:26;18.77;;;5.85;;
41829;SDS011;38614;43.472;23.936;2022-07-23T05:47:21;8.23;;;4.72;;
41829;SDS011;38614;43.472;23.936;2022-07-23T05:50:08;11.52;;;5.30;;
41829;SDS011;38614;43.472;23.936;2022-07-23T05:53:04;7.28;;;4.13;;
41829;SDS011;38614;43.472;23.936;2022-07-23T05:55:57;14.15;;;4.93;;
41829;SDS011;38614;43.472;23.936;2022-07-23T05:58:45;6.63;;;4.00;;
41829;SDS011;38614;43.472;23.936;2022-07-23T06:01:35;8.70;;;4.97;;
41829;SDS011;38614;43.472;23.936;2022-07-23T06:04:28;21.63;;;5.85;;
41829;SDS011;38614;43.472;23.936;2022-07-23T06:07:38;26.73;;;6.22;;
41829;SDS011;38614;43.472;23.936;2022-07-23T06:10:26;9.23;;;5.28;;
41829;SDS011;38614;43.472;23.936;2022-07-23T06:13:17;25.35;;;5.93;;
41829;SDS011;38614;43.472;23.936;2022-07-23T06:16:07;10.98;;;5.88;;
41829;SDS011;38614;43.472;23.936;2022-07-23T06:18:55;10.75;;;4.93;;
41829;SDS011;38614;43.472;23.936;2022-07-23T06:21:47;9.73;;;4.55;;
41829;SDS011;38614;43.472;23.936;2022-07-23T06:24:36;13.25;;;5.05;;
41829;SDS011;38614;43.472;23.936;2022-07-23T06:27:24;12.20;;;5.63;;
41829;SDS011;38614;43.472;23.936;2022-07-23T06:30:15;13.57;;;5.40;;
41829;SDS011;38614;43.472;23.936;2022-07-23T06:33:05;9.75;;;4.57;;
41829;SDS011;38614;43.472;23.936;2022-07-23T06:35:53;9.10;;;4.18;;
41829;SDS011;38614;43.472;23.936;2022-07-23T06:38:41;9.13;;;3.13;;
41829;SDS011;38614;43.472;23.936;2022-07-23T06:41:30;7.88;;;3.38;;
41829;SDS011;38614;43.472;23.936;2022-07-23T06:44:19;8.75;;;3.22;;
41829;SDS011;38614;43.472;23.936;2022-07-23T06:47:08;4.25;;;2.30;;
41829;SDS011;38614;43.472;23.936;2022-07-23T06:49:56;14.32;;;3.03;;
41829;SDS011;38614;43.472;23.936;2022-07-23T06:52:44;9.90;;;2.60;;
41829;SDS011;38614;43.472;23.936;2022-07-23T06:55:32;10.02;;;3.30;;
41829;SDS011;38614;43.472;23.936;2022-07-23T06:58:25;6.47;;;2.53;;
41829;SDS011;38614;43.472;23.936;2022-07-23T07:01:15;2.55;;;1.95;;
41829;SDS011;38614;43.472;23.936;2022-07-23T07:04:03;7.97;;;2.65;;
41829;SDS011;38614;43.472;23.936;2022-07-23T07:06:51;18.63;;;3.05;;
41829;SDS011;38614;43.472;23.936;2022-07-23T07:09:38;3.25;;;2.22;;
41829;SDS011;38614;43.472;23.936;2022-07-23T07:12:26;15.07;;;2.85;;
41829;SDS011;38614;43.472;23.936;2022-07-23T07:15:14;11.18;;;2.80;;
41829;SDS011;38614;43.472;23.936;2022-07-23T07:18:02;5.13;;;2.50;;
41829;SDS011;38614;43.472;23.936;2022-07-23T07:20:49;19.92;;;2.58;;
41829;SDS011;38614;43.472;23.936;2022-07-23T07:23:42;4.07;;;2.05;;
41829;SDS011;38614;43.472;23.936;2022-07-23T07:26:30;15.85;;;2.78;;
41829;SDS011;38614;43.472;23.936;2022-07-23T07:29:18;8.63;;;2.70;;
41829;SDS011;38614;43.472;23.936;2022-07-23T07:32:05;7.07;;;2.33;;
41829;SDS011;38614;43.472;23.936;2022-07-23T07:34:53;5.07;;;2.58;;
41829;SDS011;38614;43.472;23.936;2022-07-23T07:37:40;13.70;;;4.55;;
41829;SDS011;38614;43.472;23.936;2022-07-23T07:40:28;2.63;;;2.42;;
41829;SDS011;38614;43.472;23.936;2022-07-23T07:43:22;19.17;;;3.00;;
41829;SDS011;38614;43.472;23.936;2022-07-23T07:46:10;6.57;;;3.55;;
41829;SDS011;38614;43.472;23.936;2022-07-23T07:48:58;8.05;;;2.03;;
41829;SDS011;38614;43.472;23.936;2022-07-23T07:51:45;5.95;;;1.60;;
41829;SDS011;38614;43.472;23.936;2022-07-23T07:54:33;4.15;;;1.45;;
41829;SDS011;38614;43.472;23.936;2022-07-23T07:57:29;6.75;;;1.35;;
41829;SDS011;38614;43.472;23.936;2022-07-23T08:03:44;1.88;;;1.13;;
41829;SDS011;38614;43.472;23.936;2022-07-23T08:06:34;3.47;;;1.40;;
41829;SDS011;38614;43.472;23.936;2022-07-23T08:09:22;4.95;;;1.00;;
41829;SDS011;38614;43.472;23.936;2022-07-23T08:12:10;8.00;;;2.10;;
41829;SDS011;38614;43.472;23.936;2022-07-23T08:14:57;4.10;;;1.20;;
41829;SDS011;38614;43.472;23.936;2022-07-23T08:17:45;2.85;;;1.02;;
41829;SDS011;38614;43.472;23.936;2022-07-23T08:20:34;6.07;;;1.15;;
41829;SDS011;38614;43.472;23.936;2022-07-23T08:23:22;20.38;;;1.95;;
41829;SDS011;38614;43.472;23.936;2022-07-23T08:26:15;12.35;;;1.63;;
41829;SDS011;38614;43.472;23.936;2022-07-23T08:29:05;5.87;;;1.77;;
41829;SDS011;38614;43.472;23.936;2022-07-23T08:31:53;11.73;;;1.60;;
41829;SDS011;38614;43.472;23.936;2022-07-23T08:34:41;9.00;;;2.10;;
41829;SDS011;38614;43.472;23.936;2022-07-23T08:37:30;3.28;;;1.80;;
41829;SDS011;38614;43.472;23.936;2022-07-23T08:40:18;12.65;;;1.77;;
41829;SDS011;38614;43.472;23.936;2022-07-23T08:43:10;4.68;;;1.60;;
41829;SDS011;38614;43.472;23.936;2022-07-23T08:46:00;2.45;;;1.67;;
41829;SDS011;38614;43.472;23.936;2022-07-23T08:48:48;2.22;;;1.30;;
41829;SDS011;38614;43.472;23.936;2022-07-23T08:51:41;7.80;;;1.52;;
41829;SDS011;38614;43.472;23.936;2022-07-23T08:54:28;13.00;;;1.38;;
41829;SDS011;38614;43.472;23.936;2022-07-23T08:57:16;7.18;;;2.05;;
41829;SDS011;38614;43.472;23.936;2022-07-23T09:00:04;4.50;;;1.60;;
41829;SDS011;38614;43.472;23.936;2022-07-23T09:02:53;5.25;;;1.50;;
41829;SDS011;38614;43.472;23.936;2022-07-23T09:05:41;3.17;;;1.38;;
41829;SDS011;38614;43.472;23.936;2022-07-23T09:08:35;2.67;;;1.92;;
41829;SDS011;38614;43.472;23.936;2022-07-23T09:11:23;6.95;;;1.30;;
41829;SDS011;38614;43.472;23.936;2022-07-23T09:14:10;3.60;;;1.40;;
41829;SDS011;38614;43.472;23.936;2022-07-23T09:17:07;2.50;;;0.80;;
41829;SDS011;38614;43.472;23.936;2022-07-23T09:20:07;10.52;;;2.30;;
41829;SDS011;38614;43.472;23.936;2022-07-23T09:22:59;5.53;;;1.47;;
41829;SDS011;38614;43.472;23.936;2022-07-23T09:25:59;29.30;;;1.70;;
41829;SDS011;38614;43.472;23.936;2022-07-23T09:28:55;5.57;;;1.17;;
41829;SDS011;38614;43.472;23.936;2022-07-23T09:34:41;9.70;;;1.35;;
41829;SDS011;38614;43.472;23.936;2022-07-23T09:37:36;4.95;;;1.48;;
41829;SDS011;38614;43.472;23.936;2022-07-23T09:40:24;2.58;;;1.33;;
41829;SDS011;38614;43.472;23.936;2022-07-23T09:43:12;11.50;;;1.55;;
41829;SDS011;38614;43.472;23.936;2022-07-23T09:46:21;7.97;;;1.08;;
41829;SDS011;38614;43.472;23.936;2022-07-23T09:49:14;2.75;;;1.00;;
41829;SDS011;38614;43.472;23.936;2022-07-23T09:52:02;2.65;;;1.60;;
41829;SDS011;38614;43.472;23.936;2022-07-23T09:54:50;8.60;;;1.85;;
41829;SDS011;38614;43.472;23.936;2022-07-23T09:57:44;6.60;;;1.08;;
41829;SDS011;38614;43.472;23.936;2022-07-23T10:00:37;3.45;;;1.33;;
41829;SDS011;38614;43.472;23.936;2022-07-23T10:03:25;1.10;;;1.00;;
41829;SDS011;38614;43.472;23.936;2022-07-23T10:06:31;9.18;;;1.30;;
41829;SDS011;38614;43.472;23.936;2022-07-23T10:09:41;3.10;;;1.00;;
41829;SDS011;38614;43.472;23.936;2022-07-23T10:13:05;5.82;;;2.22;;
41829;SDS011;38614;43.472;23.936;2022-07-23T10:16:12;4.72;;;1.88;;
41829;SDS011;38614;43.472;23.936;2022-07-23T10:19:03;5.15;;;1.00;;
41829;SDS011;38614;43.472;23.936;2022-07-23T10:22:00;3.00;;;1.27;;
41829;SDS011;38614;43.472;23.936;2022-07-23T10:25:04;2.08;;;1.30;;
41829;SDS011;38614;43.472;23.936;2022-07-23T10:31:56;8.88;;;1.40;;
41829;SDS011;38614;43.472;23.936;2022-07-23T10:34:50;2.33;;;0.80;;
41829;SDS011;38614;43.472;23.936;2022-07-23T10:37:42;4.07;;;1.30;;
41829;SDS011;38614;43.472;23.936;2022-07-23T10:40:34;2.95;;;1.58;;
41829;SDS011;38614;43.472;23.936;2022-07-23T10:43:22;2.92;;;1.73;;
41829;SDS011;38614;43.472;23.936;2022-07-23T10:49:29;4.40;;;1.55;;
41829;SDS011;38614;43.472;23.936;2022-07-23T10:52:21;5.25;;;1.10;;
41829;SDS011;38614;43.472;23.936;2022-07-23T10:57:57;4.43;;;0.85;;
41829;SDS011;38614;43.472;23.936;2022-07-23T11:00:45;2.85;;;1.15;;
41829;SDS011;38614;43.472;23.936;2022-07-23T11:03:33;3.78;;;1.40;;
41829;SDS011;38614;43.472;23.936;2022-07-23T11:06:23;5.13;;;1.20;;
41829;SDS011;38614;43.472;23.936;2022-07-23T11:09:30;4.78;;;1.63;;
41829;SDS011;38614;43.472;23.936;2022-07-23T11:18:02;2.80;;;1.38;;
41829;SDS011;38614;43.472;23.936;2022-07-23T11:20:50;5.47;;;1.55;;
41829;SDS011;38614;43.472;23.936;2022-07-23T11:26:44;2.22;;;1.52;;
41829;SDS011;38614;43.472;23.936;2022-07-23T11:32:23;7.60;;;2.10;;
41829;SDS011;38614;43.472;23.936;2022-07-23T11:35:18;7.95;;;2.30;;
41829;SDS011;38614;43.472;23.936;2022-07-23T11:38:13;8.52;;;1.95;;
41829;SDS011;38614;43.472;23.936;2022-07-23T11:41:01;4.90;;;3.10;;
41829;SDS011;38614;43.472;23.936;2022-07-23T11:43:49;5.28;;;2.13;;
41829;SDS011;38614;43.472;23.936;2022-07-23T11:46:36;22.00;;;9.10;;
41829;SDS011;38614;43.472;23.936;2022-07-23T11:49:24;3.47;;;2.33;;
41829;SDS011;38614;43.472;23.936;2022-07-23T11:52:13;3.55;;;1.33;;
41829;SDS011;38614;43.472;23.936;2022-07-23T11:55:02;4.85;;;1.45;;
41829;SDS011;38614;43.472;23.936;2022-07-23T11:57:51;5.90;;;2.00;;
41829;SDS011;38614;43.472;23.936;2022-07-23T12:00:40;3.63;;;1.08;;
41829;SDS011;38614;43.472;23.936;2022-07-23T12:03:28;1.92;;;1.17;;
41829;SDS011;38614;43.472;23.936;2022-07-23T12:06:15;9.50;;;1.30;;
41829;SDS011;38614;43.472;23.936;2022-07-23T12:09:03;5.45;;;1.33;;
41829;SDS011;38614;43.472;23.936;2022-07-23T12:11:57;4.93;;;1.42;;
41829;SDS011;38614;43.472;23.936;2022-07-23T12:14:56;5.28;;;1.08;;
41829;SDS011;38614;43.472;23.936;2022-07-23T12:17:44;4.07;;;1.58;;
41829;SDS011;38614;43.472;23.936;2022-07-23T12:20:39;8.50;;;1.10;;
41829;SDS011;38614;43.472;23.936;2022-07-23T12:23:26;7.65;;;1.58;;
41829;SDS011;38614;43.472;23.936;2022-07-23T12:26:14;7.03;;;1.80;;
41829;SDS011;38614;43.472;23.936;2022-07-23T12:29:01;4.00;;;1.67;;
41829;SDS011;38614;43.472;23.936;2022-07-23T12:31:49;16.98;;;1.95;;
41829;SDS011;38614;43.472;23.936;2022-07-23T12:34:36;7.63;;;1.23;;
41829;SDS011;38614;43.472;23.936;2022-07-23T12:37:28;10.27;;;2.10;;
41829;SDS011;38614;43.472;23.936;2022-07-23T12:40:20;9.88;;;1.45;;
41829;SDS011;38614;43.472;23.936;2022-07-23T12:43:10;9.93;;;1.38;;
41829;SDS011;38614;43.472;23.936;2022-07-23T12:49:09;4.55;;;1.63;;
41829;SDS011;38614;43.472;23.936;2022-07-23T12:51:57;4.43;;;1.13;;
41829;SDS011;38614;43.472;23.936;2022-07-23T12:54:45;10.73;;;1.17;;
41829;SDS011;38614;43.472;23.936;2022-07-23T12:57:46;4.10;;;1.48;;
41829;SDS011;38614;43.472;23.936;2022-07-23T13:00:53;8.68;;;2.10;;
41829;SDS011;38614;43.472;23.936;2022-07-23T13:03:41;11.52;;;1.75;;
41829;SDS011;38614;43.472;23.936;2022-07-23T13:06:43;7.70;;;1.55;;
41829;SDS011;38614;43.472;23.936;2022-07-23T13:09:32;4.03;;;1.52;;
41829;SDS011;38614;43.472;23.936;2022-07-23T13:12:24;6.28;;;2.00;;
41829;SDS011;38614;43.472;23.936;2022-07-23T13:15:12;4.32;;;1.52;;
41829;SDS011;38614;43.472;23.936;2022-07-23T13:17:59;5.75;;;1.98;;
41829;SDS011;38614;43.472;23.936;2022-07-23T13:20:49;12.80;;;1.73;;
41829;SDS011;38614;43.472;23.936;2022-07-23T13:23:37;6.13;;;1.27;;
41829;SDS011;38614;43.472;23.936;2022-07-23T13:26:25;3.75;;;1.30;;
41829;SDS011;38614;43.472;23.936;2022-07-23T13:29:18;7.10;;;1.95;;
41829;SDS011;38614;43.472;23.936;2022-07-23T13:32:16;5.03;;;1.60;;
41829;SDS011;38614;43.472;23.936;2022-07-23T13:35:03;7.50;;;1.30;;
41829;SDS011;38614;43.472;23.936;2022-07-23T13:37:51;7.28;;;1.35;;
41829;SDS011;38614;43.472;23.936;2022-07-23T13:40:40;5.78;;;1.50;;
41829;SDS011;38614;43.472;23.936;2022-07-23T13:46:22;10.10;;;1.45;;
41829;SDS011;38614;43.472;23.936;2022-07-23T13:49:10;7.80;;;1.50;;
41829;SDS011;38614;43.472;23.936;2022-07-23T13:52:00;9.55;;;1.42;;
41829;SDS011;38614;43.472;23.936;2022-07-23T13:54:47;4.97;;;1.40;;
41829;SDS011;38614;43.472;23.936;2022-07-23T13:57:35;5.63;;;1.40;;
41829;SDS011;38614;43.472;23.936;2022-07-23T14:00:23;6.47;;;1.55;;
41829;SDS011;38614;43.472;23.936;2022-07-23T14:03:30;9.32;;;1.35;;
41829;SDS011;38614;43.472;23.936;2022-07-23T14:06:18;9.07;;;1.30;;
41829;SDS011;38614;43.472;23.936;2022-07-23T14:12:06;3.60;;;1.27;;
41829;SDS011;38614;43.472;23.936;2022-07-23T14:14:53;8.48;;;1.42;;
41829;SDS011;38614;43.472;23.936;2022-07-23T14:17:42;6.88;;;1.63;;
41829;SDS011;38614;43.472;23.936;2022-07-23T14:20:30;6.95;;;1.20;;
41829;SDS011;38614;43.472;23.936;2022-07-23T14:23:18;5.10;;;0.98;;
41829;SDS011;38614;43.472;23.936;2022-07-23T14:26:05;4.75;;;1.17;;
41829;SDS011;38614;43.472;23.936;2022-07-23T14:28:53;3.90;;;1.00;;
41829;SDS011;38614;43.472;23.936;2022-07-23T14:31:40;4.60;;;0.85;;
41829;SDS011;38614;43.472;23.936;2022-07-23T14:34:29;5.68;;;1.55;;
41829;SDS011;38614;43.472;23.936;2022-07-23T14:37:16;3.72;;;1.42;;
41829;SDS011;38614;43.472;23.936;2022-07-23T14:40:05;4.35;;;1.33;;
41829;SDS011;38614;43.472;23.936;2022-07-23T14:42:54;5.33;;;1.67;;
41829;SDS011;38614;43.472;23.936;2022-07-23T14:45:41;7.10;;;1.85;;
41829;SDS011;38614;43.472;23.936;2022-07-23T14:51:21;6.22;;;1.67;;
41829;SDS011;38614;43.472;23.936;2022-07-23T14:54:12;10.43;;;1.05;;
41829;SDS011;38614;43.472;23.936;2022-07-23T14:57:02;3.60;;;1.33;;
41829;SDS011;38614;43.472;23.936;2022-07-23T14:59:50;3.55;;;1.95;;
41829;SDS011;38614;43.472;23.936;2022-07-23T15:02:38;7.95;;;1.80;;
41829;SDS011;38614;43.472;23.936;2022-07-23T15:05:26;10.88;;;1.70;;
41829;SDS011;38614;43.472;23.936;2022-07-23T15:08:15;5.25;;;0.77;;
41829;SDS011;38614;43.472;23.936;2022-07-23T15:11:09;5.47;;;1.17;;
41829;SDS011;38614;43.472;23.936;2022-07-23T15:13:57;11.48;;;2.10;;
41829;SDS011;38614;43.472;23.936;2022-07-23T15:16:44;4.43;;;1.05;;
41829;SDS011;38614;43.472;23.936;2022-07-23T15:19:33;5.00;;;1.77;;
41829;SDS011;38614;43.472;23.936;2022-07-23T15:22:21;9.30;;;1.42;;
41829;SDS011;38614;43.472;23.936;2022-07-23T15:25:11;9.02;;;1.08;;
41829;SDS011;38614;43.472;23.936;2022-07-23T15:27:58;9.55;;;1.88;;
41829;SDS011;38614;43.472;23.936;2022-07-23T15:30:46;6.18;;;0.82;;
41829;SDS011;38614;43.472;23.936;2022-07-23T15:33:34;20.27;;;1.60;;
41829;SDS011;38614;43.472;23.936;2022-07-23T15:36:23;6.73;;;2.13;;
41829;SDS011;38614;43.472;23.936;2022-07-23T15:39:13;6.82;;;1.55;;
41829;SDS011;38614;43.472;23.936;2022-07-23T15:42:03;9.85;;;1.85;;
41829;SDS011;38614;43.472;23.936;2022-07-23T15:44:58;2.95;;;1.58;;
41829;SDS011;38614;43.472;23.936;2022-07-23T15:47:46;6.53;;;1.90;;
41829;SDS011;38614;43.472;23.936;2022-07-23T15:50:34;3.72;;;1.00;;
41829;SDS011;38614;43.472;23.936;2022-07-23T15:53:22;6.63;;;1.88;;
41829;SDS011;38614;43.472;23.936;2022-07-23T15:56:23;3.45;;;1.33;;
41829;SDS011;38614;43.472;23.936;2022-07-23T15:59:10;2.88;;;1.17;;
41829;SDS011;38614;43.472;23.936;2022-07-23T16:01:58;5.38;;;0.93;;
41829;SDS011;38614;43.472;23.936;2022-07-23T16:04:46;3.80;;;1.40;;
41829;SDS011;38614;43.472;23.936;2022-07-23T16:07:33;9.05;;;1.48;;
41829;SDS011;38614;43.472;23.936;2022-07-23T16:10:24;8.18;;;1.27;;
41829;SDS011;38614;43.472;23.936;2022-07-23T16:13:12;7.05;;;1.73;;
41829;SDS011;38614;43.472;23.936;2022-07-23T16:16:00;1.50;;;1.00;;
41829;SDS011;38614;43.472;23.936;2022-07-23T16:18:48;6.97;;;1.27;;
41829;SDS011;38614;43.472;23.936;2022-07-23T16:21:38;4.97;;;1.00;;
41829;SDS011;38614;43.472;23.936;2022-07-23T16:24:27;5.32;;;1.10;;
41829;SDS011;38614;43.472;23.936;2022-07-23T16:27:15;4.45;;;1.50;;
41829;SDS011;38614;43.472;23.936;2022-07-23T16:30:03;1.85;;;0.63;;
41829;SDS011;38614;43.472;23.936;2022-07-23T16:32:51;3.17;;;1.00;;
41829;SDS011;38614;43.472;23.936;2022-07-23T16:35:38;5.68;;;1.63;;
41829;SDS011;38614;43.472;23.936;2022-07-23T16:38:26;3.35;;;1.52;;
41829;SDS011;38614;43.472;23.936;2022-07-23T16:41:14;7.90;;;1.77;;
41829;SDS011;38614;43.472;23.936;2022-07-23T16:44:01;13.27;;;1.67;;
41829;SDS011;38614;43.472;23.936;2022-07-23T16:46:49;3.25;;;1.23;;
41829;SDS011;38614;43.472;23.936;2022-07-23T16:49:36;5.53;;;1.58;;
41829;SDS011;38614;43.472;23.936;2022-07-23T16:52:24;4.20;;;1.58;;
41829;SDS011;38614;43.472;23.936;2022-07-23T16:55:11;7.65;;;1.27;;
41829;SDS011;38614;43.472;23.936;2022-07-23T16:57:59;4.32;;;1.50;;
41829;SDS011;38614;43.472;23.936;2022-07-23T17:00:46;10.48;;;1.45;;
41829;SDS011;38614;43.472;23.936;2022-07-23T17:03:34;9.07;;;1.23;;
41829;SDS011;38614;43.472;23.936;2022-07-23T17:06:22;4.63;;;1.50;;
41829;SDS011;38614;43.472;23.936;2022-07-23T17:09:11;6.23;;;0.90;;
41829;SDS011;38614;43.472;23.936;2022-07-23T17:12:01;6.60;;;1.13;;
41829;SDS011;38614;43.472;23.936;2022-07-23T17:14:49;5.22;;;1.08;;
41829;SDS011;38614;43.472;23.936;2022-07-23T17:17:39;2.33;;;1.38;;
41829;SDS011;38614;43.472;23.936;2022-07-23T17:20:29;5.38;;;1.75;;
41829;SDS011;38614;43.472;23.936;2022-07-23T17:23:17;8.20;;;1.20;;
41829;SDS011;38614;43.472;23.936;2022-07-23T17:26:05;4.13;;;1.17;;
41829;SDS011;38614;43.472;23.936;2022-07-23T17:28:52;3.67;;;1.60;;